sensor_id;sensor_type;location;lat;lon;timestamp;pressure;altitude;pressure_sealevel;temperature
54746;BMP180;40640;48.130;11.356;2023-02-28T00:02:08;95876.00;;;-1.20
54746;BMP180;40640;48.130;11.356;2023-02-28T00:06:12;95861.00;;;-1.20
54746;BMP180;40640;48.130;11.356;2023-02-28T00:10:18;95868.00;;;-1.40
54746;BMP180;40640;48.130;11.356;2023-02-28T00:14:22;95866.00;;;-1.50
54746;BMP180;40640;48.130;11.356;2023-02-28T00:18:25;95866.00;;;-1.50
54746;BMP180;40640;48.130;11.356;2023-02-28T00:22:30;95860.00;;;-1.50
54746;BMP180;40640;48.130;11.356;2023-02-28T00:26:34;95850.00;;;-1.30
54746;BMP180;40640;48.130;11.356;2023-02-28T00:30:37;95853.00;;;-1.50
54746;BMP180;40640;48.130;11.356;2023-02-28T00:34:40;95855.00;;;-1.40
54746;BMP180;40640;48.130;11.356;2023-02-28T00:38:42;95857.00;;;-1.40
54746;BMP180;40640;48.130;11.356;2023-02-28T00:42:47;95860.00;;;-1.30
54746;BMP180;40640;48.130;11.356;2023-02-28T00:46:49;95853.00;;;-1.30
54746;BMP180;40640;48.130;11.356;2023-02-28T00:50:53;95860.00;;;-1.10
54746;BMP180;40640;48.130;11.356;2023-02-28T00:54:56;95861.00;;;-1.10
54746;BMP180;40640;48.130;11.356;2023-02-28T00:59:00;95853.00;;;-1.40
54746;BMP180;40640;48.130;11.356;2023-02-28T01:03:03;95845.00;;;-1.40
54746;BMP180;40640;48.130;11.356;2023-02-28T01:07:06;95853.00;;;-1.40
54746;BMP180;40640;48.130;11.356;2023-02-28T01:11:09;95859.00;;;-1.20
54746;BMP180;40640;48.130;11.356;2023-02-28T01:15:16;95845.00;;;-1.30
54746;BMP180;40640;48.130;11.356;2023-02-28T01:19:19;95841.00;;;-1.30
54746;BMP180;40640;48.130;11.356;2023-02-28T01:23:22;95839.00;;;-1.30
54746;BMP180;40640;48.130;11.356;2023-02-28T01:27:25;95830.00;;;-1.20
54746;BMP180;40640;48.130;11.356;2023-02-28T01:31:31;95838.00;;;-1.30
54746;BMP180;40640;48.130;11.356;2023-02-28T01:35:35;95839.00;;;-1.40
54746;BMP180;40640;48.130;11.356;2023-02-28T01:39:38;95841.00;;;-1.20
54746;BMP180;40640;48.130;11.356;2023-02-28T01:43:59;95831.00;;;-1.30
54746;BMP180;40640;48.130;11.356;2023-02-28T01:48:07;95837.00;;;-1.10
54746;BMP180;40640;48.130;11.356;2023-02-28T01:52:12;95835.00;;;-1.20
54746;BMP180;40640;48.130;11.356;2023-02-28T01:56:23;95826.00;;;-1.00
54746;BMP180;40640;48.130;11.356;2023-02-28T02:00:27;95831.00;;;-1.00
54746;BMP180;40640;48.130;11.356;2023-02-28T02:04:37;95828.00;;;-0.90
54746;BMP180;40640;48.130;11.356;2023-02-28T02:08:41;95825.00;;;-0.90
54746;BMP180;40640;48.130;11.356;2023-02-28T02:13:00;95825.00;;;-0.80
54746;BMP180;40640;48.130;11.356;2023-02-28T02:17:20;95822.00;;;-0.90
54746;BMP180;40640;48.130;11.356;2023-02-28T02:21:45;95810.00;;;-0.90
54746;BMP180;40640;48.130;11.356;2023-02-28T02:26:08;95808.00;;;-0.90
54746;BMP180;40640;48.130;11.356;2023-02-28T02:30:39;95822.00;;;-0.90
54746;BMP180;40640;48.130;11.356;2023-02-28T02:34:56;95809.00;;;-0.90
54746;BMP180;40640;48.130;11.356;2023-02-28T02:39:05;95804.00;;;-0.90
54746;BMP180;40640;48.130;11.356;2023-02-28T02:43:15;95801.00;;;-0.90
54746;BMP180;40640;48.130;11.356;2023-02-28T02:47:20;95802.00;;;-1.10
54746;BMP180;40640;48.130;11.356;2023-02-28T02:51:27;95802.00;;;-1.10
54746;BMP180;40640;48.130;11.356;2023-02-28T02:55:36;95796.00;;;-1.00
54746;BMP180;40640;48.130;11.356;2023-02-28T02:59:40;95787.00;;;-1.00
54746;BMP180;40640;48.130;11.356;2023-02-28T03:03:44;95803.00;;;-1.10
54746;BMP180;40640;48.130;11.356;2023-02-28T03:07:49;95801.00;;;-1.10
54746;BMP180;40640;48.130;11.356;2023-02-28T03:11:54;95805.00;;;-1.10
54746;BMP180;40640;48.130;11.356;2023-02-28T03:16:13;95805.00;;;-1.10
54746;BMP180;40640;48.130;11.356;2023-02-28T03:20:30;95801.00;;;-1.10
54746;BMP180;40640;48.130;11.356;2023-02-28T03:24:43;95808.00;;;-1.10
54746;BMP180;40640;48.130;11.356;2023-02-28T03:28:53;95816.00;;;-1.00
54746;BMP180;40640;48.130;11.356;2023-02-28T03:33:03;95810.00;;;-1.10
54746;BMP180;40640;48.130;11.356;2023-02-28T03:37:11;95804.00;;;-1.10
54746;BMP180;40640;48.130;11.356;2023-02-28T03:41:21;95811.00;;;-1.10
54746;BMP180;40640;48.130;11.356;2023-02-28T03:45:26;95797.00;;;-1.10
54746;BMP180;40640;48.130;11.356;2023-02-28T03:49:34;95811.00;;;-1.20
54746;BMP180;40640;48.130;11.356;2023-02-28T03:53:42;95813.00;;;-1.10
54746;BMP180;40640;48.130;11.356;2023-02-28T03:57:54;95819.00;;;-1.20
54746;BMP180;40640;48.130;11.356;2023-02-28T04:01:59;95821.00;;;-1.20
54746;BMP180;40640;48.130;11.356;2023-02-28T04:06:03;95828.00;;;-1.30
54746;BMP180;40640;48.130;11.356;2023-02-28T04:10:08;95842.00;;;-1.30
54746;BMP180;40640;48.130;11.356;2023-02-28T04:14:12;95841.00;;;-1.30
54746;BMP180;40640;48.130;11.356;2023-02-28T04:18:15;95846.00;;;-1.20
54746;BMP180;40640;48.130;11.356;2023-02-28T04:22:18;95844.00;;;-1.20
54746;BMP180;40640;48.130;11.356;2023-02-28T04:26:21;95852.00;;;-1.20
54746;BMP180;40640;48.130;11.356;2023-02-28T04:30:25;95854.00;;;-1.20
54746;BMP180;40640;48.130;11.356;2023-02-28T04:34:30;95853.00;;;-1.10
54746;BMP180;40640;48.130;11.356;2023-02-28T04:38:36;95849.00;;;-1.00
54746;BMP180;40640;48.130;11.356;2023-02-28T04:42:39;95856.00;;;-1.00
54746;BMP180;40640;48.130;11.356;2023-02-28T04:46:43;95858.00;;;-0.80
54746;BMP180;40640;48.130;11.356;2023-02-28T04:50:46;95857.00;;;-0.70
54746;BMP180;40640;48.130;11.356;2023-02-28T04:54:49;95860.00;;;-0.70
54746;BMP180;40640;48.130;11.356;2023-02-28T04:58:52;95851.00;;;-0.70
54746;BMP180;40640;48.130;11.356;2023-02-28T05:02:57;95866.00;;;-0.70
54746;BMP180;40640;48.130;11.356;2023-02-28T05:07:00;95859.00;;;-0.70
54746;BMP180;40640;48.130;11.356;2023-02-28T05:11:05;95861.00;;;-0.70
54746;BMP180;40640;48.130;11.356;2023-02-28T05:15:12;95866.00;;;-0.60
54746;BMP180;40640;48.130;11.356;2023-02-28T05:19:16;95865.00;;;-0.50
54746;BMP180;40640;48.130;11.356;2023-02-28T05:23:20;95866.00;;;-0.50
54746;BMP180;40640;48.130;11.356;2023-02-28T05:27:23;95881.00;;;-0.60
54746;BMP180;40640;48.130;11.356;2023-02-28T05:31:26;95866.00;;;-0.70
54746;BMP180;40640;48.130;11.356;2023-02-28T05:35:31;95876.00;;;-0.70
54746;BMP180;40640;48.130;11.356;2023-02-28T05:39:34;95878.00;;;-0.60
54746;BMP180;40640;48.130;11.356;2023-02-28T05:43:37;95871.00;;;-0.60
54746;BMP180;40640;48.130;11.356;2023-02-28T05:47:40;95874.00;;;-0.70
54746;BMP180;40640;48.130;11.356;2023-02-28T05:51:44;95877.00;;;-1.00
54746;BMP180;40640;48.130;11.356;2023-02-28T05:55:47;95869.00;;;-1.00
54746;BMP180;40640;48.130;11.356;2023-02-28T05:59:50;95878.00;;;-1.30
54746;BMP180;40640;48.130;11.356;2023-02-28T06:03:53;95878.00;;;-1.40
54746;BMP180;40640;48.130;11.356;2023-02-28T06:07:57;95886.00;;;-1.60
54746;BMP180;40640;48.130;11.356;2023-02-28T06:12:01;95888.00;;;-1.70
54746;BMP180;40640;48.130;11.356;2023-02-28T06:16:05;95885.00;;;-1.80
54746;BMP180;40640;48.130;11.356;2023-02-28T06:20:10;95879.00;;;-2.00
54746;BMP180;40640;48.130;11.356;2023-02-28T06:24:15;95875.00;;;-2.20
54746;BMP180;40640;48.130;11.356;2023-02-28T06:28:19;95883.00;;;-2.30
54746;BMP180;40640;48.130;11.356;2023-02-28T06:32:21;95882.00;;;-2.10
54746;BMP180;40640;48.130;11.356;2023-02-28T06:36:24;95884.00;;;-2.20
54746;BMP180;40640;48.130;11.356;2023-02-28T06:40:29;95905.00;;;-2.20
54746;BMP180;40640;48.130;11.356;2023-02-28T06:44:33;95911.00;;;-2.30
54746;BMP180;40640;48.130;11.356;2023-02-28T06:48:37;95916.00;;;-2.10
54746;BMP180;40640;48.130;11.356;2023-02-28T06:52:40;95916.00;;;-2.10
54746;BMP180;40640;48.130;11.356;2023-02-28T06:56:44;95911.00;;;-1.90
54746;BMP180;40640;48.130;11.356;2023-02-28T07:00:50;95909.00;;;-1.90
54746;BMP180;40640;48.130;11.356;2023-02-28T07:04:53;95914.00;;;-1.80
54746;BMP180;40640;48.130;11.356;2023-02-28T07:08:56;95928.00;;;-2.00
54746;BMP180;40640;48.130;11.356;2023-02-28T07:13:01;95934.00;;;-1.90
54746;BMP180;40640;48.130;11.356;2023-02-28T07:17:03;95924.00;;;-2.00
54746;BMP180;40640;48.130;11.356;2023-02-28T07:21:09;95933.00;;;-1.90
54746;BMP180;40640;48.130;11.356;2023-02-28T07:25:11;95940.00;;;-1.90
54746;BMP180;40640;48.130;11.356;2023-02-28T07:29:16;95940.00;;;-2.20
54746;BMP180;40640;48.130;11.356;2023-02-28T07:33:18;95932.00;;;-2.10
54746;BMP180;40640;48.130;11.356;2023-02-28T07:37:22;95936.00;;;-1.90
54746;BMP180;40640;48.130;11.356;2023-02-28T07:41:24;95929.00;;;-2.00
54746;BMP180;40640;48.130;11.356;2023-02-28T07:45:31;95936.00;;;-1.80
54746;BMP180;40640;48.130;11.356;2023-02-28T07:49:36;95939.00;;;-1.60
54746;BMP180;40640;48.130;11.356;2023-02-28T07:53:39;95938.00;;;-1.80
54746;BMP180;40640;48.130;11.356;2023-02-28T07:57:42;95931.00;;;-1.60
54746;BMP180;40640;48.130;11.356;2023-02-28T08:01:47;95937.00;;;-1.60
54746;BMP180;40640;48.130;11.356;2023-02-28T08:05:51;95943.00;;;-1.40
54746;BMP180;40640;48.130;11.356;2023-02-28T08:09:55;95939.00;;;-1.50
54746;BMP180;40640;48.130;11.356;2023-02-28T08:13:58;95949.00;;;-1.30
54746;BMP180;40640;48.130;11.356;2023-02-28T08:18:02;95951.00;;;-1.30
54746;BMP180;40640;48.130;11.356;2023-02-28T08:22:05;95958.00;;;-1.40
54746;BMP180;40640;48.130;11.356;2023-02-28T08:26:09;95963.00;;;-1.20
54746;BMP180;40640;48.130;11.356;2023-02-28T08:30:13;95962.00;;;-1.10
54746;BMP180;40640;48.130;11.356;2023-02-28T08:34:18;95964.00;;;-1.20
54746;BMP180;40640;48.130;11.356;2023-02-28T08:38:21;95965.00;;;-1.00
54746;BMP180;40640;48.130;11.356;2023-02-28T08:42:24;95981.00;;;-0.80
54746;BMP180;40640;48.130;11.356;2023-02-28T08:46:27;95988.00;;;-0.80
54746;BMP180;40640;48.130;11.356;2023-02-28T08:50:31;95991.00;;;-0.90
54746;BMP180;40640;48.130;11.356;2023-02-28T08:54:35;95974.00;;;-1.00
54746;BMP180;40640;48.130;11.356;2023-02-28T08:58:38;95990.00;;;-0.60
54746;BMP180;40640;48.130;11.356;2023-02-28T09:02:41;95997.00;;;-0.50
54746;BMP180;40640;48.130;11.356;2023-02-28T09:06:46;95990.00;;;-0.70
54746;BMP180;40640;48.130;11.356;2023-02-28T09:10:50;95999.00;;;-0.30
54746;BMP180;40640;48.130;11.356;2023-02-28T09:14:53;95992.00;;;-0.50
54746;BMP180;40640;48.130;11.356;2023-02-28T09:18:56;95996.00;;;-0.70
54746;BMP180;40640;48.130;11.356;2023-02-28T09:23:00;95994.00;;;-0.50
54746;BMP180;40640;48.130;11.356;2023-02-28T09:27:04;96006.00;;;-0.70
54746;BMP180;40640;48.130;11.356;2023-02-28T09:31:12;95997.00;;;-0.80
54746;BMP180;40640;48.130;11.356;2023-02-28T09:35:15;96014.00;;;-1.00
54746;BMP180;40640;48.130;11.356;2023-02-28T09:39:19;96013.00;;;-0.90
54746;BMP180;40640;48.130;11.356;2023-02-28T09:43:25;96019.00;;;-0.70
54746;BMP180;40640;48.130;11.356;2023-02-28T09:47:31;96022.00;;;-0.50
54746;BMP180;40640;48.130;11.356;2023-02-28T09:51:45;96041.00;;;0.00
54746;BMP180;40640;48.130;11.356;2023-02-28T09:55:54;96038.00;;;0.10
54746;BMP180;40640;48.130;11.356;2023-02-28T10:00:05;96039.00;;;0.00
54746;BMP180;40640;48.130;11.356;2023-02-28T10:04:16;96035.00;;;0.10
54746;BMP180;40640;48.130;11.356;2023-02-28T10:08:25;96032.00;;;-0.10
54746;BMP180;40640;48.130;11.356;2023-02-28T10:12:31;96039.00;;;0.10
54746;BMP180;40640;48.130;11.356;2023-02-28T10:16:38;96047.00;;;0.10
54746;BMP180;40640;48.130;11.356;2023-02-28T10:20:43;96046.00;;;0.50
54746;BMP180;40640;48.130;11.356;2023-02-28T10:24:48;96055.00;;;0.50
54746;BMP180;40640;48.130;11.356;2023-02-28T10:28:54;96059.00;;;0.30
54746;BMP180;40640;48.130;11.356;2023-02-28T10:32:57;96076.00;;;1.20
54746;BMP180;40640;48.130;11.356;2023-02-28T10:37:00;96072.00;;;1.20
54746;BMP180;40640;48.130;11.356;2023-02-28T10:41:10;96073.00;;;0.90
54746;BMP180;40640;48.130;11.356;2023-02-28T10:45:16;96073.00;;;1.00
54746;BMP180;40640;48.130;11.356;2023-02-28T10:49:21;96078.00;;;0.80
54746;BMP180;40640;48.130;11.356;2023-02-28T10:53:33;96092.00;;;0.80
54746;BMP180;40640;48.130;11.356;2023-02-28T10:57:57;96079.00;;;1.00
54746;BMP180;40640;48.130;11.356;2023-02-28T11:02:01;96078.00;;;1.30
54746;BMP180;40640;48.130;11.356;2023-02-28T11:06:07;96083.00;;;1.30
54746;BMP180;40640;48.130;11.356;2023-02-28T11:10:20;96100.00;;;1.30
54746;BMP180;40640;48.130;11.356;2023-02-28T11:14:25;96092.00;;;1.80
54746;BMP180;40640;48.130;11.356;2023-02-28T11:18:34;96099.00;;;2.30
54746;BMP180;40640;48.130;11.356;2023-02-28T11:22:43;96095.00;;;2.40
54746;BMP180;40640;48.130;11.356;2023-02-28T11:26:48;96102.00;;;2.90
54746;BMP180;40640;48.130;11.356;2023-02-28T11:31:01;96104.00;;;2.90
54746;BMP180;40640;48.130;11.356;2023-02-28T11:35:17;96085.00;;;2.70
54746;BMP180;40640;48.130;11.356;2023-02-28T11:39:25;96092.00;;;2.70
54746;BMP180;40640;48.130;11.356;2023-02-28T11:43:37;96081.00;;;3.00
54746;BMP180;40640;48.130;11.356;2023-02-28T11:47:46;96090.00;;;3.40
54746;BMP180;40640;48.130;11.356;2023-02-28T11:51:54;96085.00;;;4.40
54746;BMP180;40640;48.130;11.356;2023-02-28T11:56:03;96087.00;;;5.70
54746;BMP180;40640;48.130;11.356;2023-02-28T12:00:22;96097.00;;;6.70
54746;BMP180;40640;48.130;11.356;2023-02-28T12:04:40;96102.00;;;8.80
54746;BMP180;40640;48.130;11.356;2023-02-28T12:09:00;96103.00;;;10.20
54746;BMP180;40640;48.130;11.356;2023-02-28T12:13:12;96102.00;;;12.10
54746;BMP180;40640;48.130;11.356;2023-02-28T12:17:27;96101.00;;;11.70
54746;BMP180;40640;48.130;11.356;2023-02-28T12:21:44;96106.00;;;12.80
54746;BMP180;40640;48.130;11.356;2023-02-28T12:26:01;96105.00;;;13.90
54746;BMP180;40640;48.130;11.356;2023-02-28T12:30:14;96093.00;;;12.50
54746;BMP180;40640;48.130;11.356;2023-02-28T12:34:22;96092.00;;;11.60
54746;BMP180;40640;48.130;11.356;2023-02-28T12:38:31;96082.00;;;10.50
54746;BMP180;40640;48.130;11.356;2023-02-28T12:42:42;96074.00;;;10.40
54746;BMP180;40640;48.130;11.356;2023-02-28T12:46:50;96074.00;;;10.80
54746;BMP180;40640;48.130;11.356;2023-02-28T12:50:54;96074.00;;;10.50
54746;BMP180;40640;48.130;11.356;2023-02-28T12:55:02;96075.00;;;11.30
54746;BMP180;40640;48.130;11.356;2023-02-28T12:59:15;96081.00;;;11.50
54746;BMP180;40640;48.130;11.356;2023-02-28T13:03:38;96079.00;;;12.80
54746;BMP180;40640;48.130;11.356;2023-02-28T13:12:29;96084.00;;;13.40
54746;BMP180;40640;48.130;11.356;2023-02-28T13:16:56;96091.00;;;13.40
54746;BMP180;40640;48.130;11.356;2023-02-28T13:21:00;96085.00;;;12.20
54746;BMP180;40640;48.130;11.356;2023-02-28T13:29:56;96095.00;;;13.00
54746;BMP180;40640;48.130;11.356;2023-02-28T13:34:12;96085.00;;;11.50
54746;BMP180;40640;48.130;11.356;2023-02-28T13:38:25;96081.00;;;10.80
54746;BMP180;40640;48.130;11.356;2023-02-28T13:42:35;96086.00;;;9.30
54746;BMP180;40640;48.130;11.356;2023-02-28T13:51:39;96085.00;;;9.60
54746;BMP180;40640;48.130;11.356;2023-02-28T13:55:46;96075.00;;;8.50
54746;BMP180;40640;48.130;11.356;2023-02-28T14:00:06;96071.00;;;8.40
54746;BMP180;40640;48.130;11.356;2023-02-28T14:04:43;96074.00;;;8.00
54746;BMP180;40640;48.130;11.356;2023-02-28T14:08:54;96074.00;;;6.90
54746;BMP180;40640;48.130;11.356;2023-02-28T14:13:01;96069.00;;;7.00
54746;BMP180;40640;48.130;11.356;2023-02-28T14:17:05;96073.00;;;7.30
54746;BMP180;40640;48.130;11.356;2023-02-28T14:21:16;96071.00;;;6.80
54746;BMP180;40640;48.130;11.356;2023-02-28T14:25:32;96075.00;;;6.90
54746;BMP180;40640;48.130;11.356;2023-02-28T14:29:59;96069.00;;;7.00
54746;BMP180;40640;48.130;11.356;2023-02-28T14:34:31;96070.00;;;7.00
54746;BMP180;40640;48.130;11.356;2023-02-28T14:38:41;96069.00;;;7.50
54746;BMP180;40640;48.130;11.356;2023-02-28T14:42:56;96070.00;;;7.60
54746;BMP180;40640;48.130;11.356;2023-02-28T14:47:01;96072.00;;;7.40
54746;BMP180;40640;48.130;11.356;2023-02-28T14:51:08;96081.00;;;7.50
54746;BMP180;40640;48.130;11.356;2023-02-28T14:55:14;96072.00;;;7.50
54746;BMP180;40640;48.130;11.356;2023-02-28T14:59:28;96076.00;;;7.60
54746;BMP180;40640;48.130;11.356;2023-02-28T15:03:33;96064.00;;;7.10
54746;BMP180;40640;48.130;11.356;2023-02-28T15:07:36;96060.00;;;6.90
54746;BMP180;40640;48.130;11.356;2023-02-28T15:11:39;96069.00;;;6.50
54746;BMP180;40640;48.130;11.356;2023-02-28T15:15:46;96058.00;;;6.30
54746;BMP180;40640;48.130;11.356;2023-02-28T15:20:12;96067.00;;;6.10
54746;BMP180;40640;48.130;11.356;2023-02-28T15:24:17;96066.00;;;5.50
54746;BMP180;40640;48.130;11.356;2023-02-28T15:28:25;96055.00;;;5.50
54746;BMP180;40640;48.130;11.356;2023-02-28T15:32:31;96058.00;;;5.20
54746;BMP180;40640;48.130;11.356;2023-02-28T15:36:35;96060.00;;;4.90
54746;BMP180;40640;48.130;11.356;2023-02-28T15:40:41;96063.00;;;4.70
54746;BMP180;40640;48.130;11.356;2023-02-28T15:44:45;96065.00;;;4.70
54746;BMP180;40640;48.130;11.356;2023-02-28T15:48:53;96064.00;;;4.70
54746;BMP180;40640;48.130;11.356;2023-02-28T15:52:56;96065.00;;;4.70
54746;BMP180;40640;48.130;11.356;2023-02-28T15:57:03;96071.00;;;4.40
54746;BMP180;40640;48.130;11.356;2023-02-28T16:01:17;96066.00;;;4.50
54746;BMP180;40640;48.130;11.356;2023-02-28T16:05:24;96068.00;;;4.40
54746;BMP180;40640;48.130;11.356;2023-02-28T16:09:32;96071.00;;;4.30
54746;BMP180;40640;48.130;11.356;2023-02-28T16:13:36;96067.00;;;3.90
54746;BMP180;40640;48.130;11.356;2023-02-28T16:17:39;96073.00;;;4.00
54746;BMP180;40640;48.130;11.356;2023-02-28T16:21:44;96062.00;;;4.00
54746;BMP180;40640;48.130;11.356;2023-02-28T16:25:47;96068.00;;;3.90
54746;BMP180;40640;48.130;11.356;2023-02-28T16:29:50;96069.00;;;4.10
54746;BMP180;40640;48.130;11.356;2023-02-28T16:33:53;96074.00;;;4.00
54746;BMP180;40640;48.130;11.356;2023-02-28T16:37:59;96080.00;;;4.10
54746;BMP180;40640;48.130;11.356;2023-02-28T16:42:02;96076.00;;;4.10
54746;BMP180;40640;48.130;11.356;2023-02-28T16:46:07;96077.00;;;4.10
54746;BMP180;40640;48.130;11.356;2023-02-28T16:50:14;96090.00;;;4.00
54746;BMP180;40640;48.130;11.356;2023-02-28T16:54:19;96082.00;;;4.00
54746;BMP180;40640;48.130;11.356;2023-02-28T16:58:22;96087.00;;;3.70
54746;BMP180;40640;48.130;11.356;2023-02-28T17:02:27;96079.00;;;3.80
54746;BMP180;40640;48.130;11.356;2023-02-28T17:06:30;96092.00;;;3.80
54746;BMP180;40640;48.130;11.356;2023-02-28T17:10:35;96093.00;;;3.80
54746;BMP180;40640;48.130;11.356;2023-02-28T17:14:38;96101.00;;;3.80
54746;BMP180;40640;48.130;11.356;2023-02-28T17:18:40;96099.00;;;3.80
54746;BMP180;40640;48.130;11.356;2023-02-28T17:22:43;96098.00;;;3.80
54746;BMP180;40640;48.130;11.356;2023-02-28T17:26:48;96113.00;;;3.80
54746;BMP180;40640;48.130;11.356;2023-02-28T17:30:51;96109.00;;;3.80
54746;BMP180;40640;48.130;11.356;2023-02-28T17:34:54;96121.00;;;3.70
54746;BMP180;40640;48.130;11.356;2023-02-28T17:38:57;96109.00;;;3.70
54746;BMP180;40640;48.130;11.356;2023-02-28T17:43:01;96120.00;;;3.60
54746;BMP180;40640;48.130;11.356;2023-02-28T17:47:04;96113.00;;;3.40
54746;BMP180;40640;48.130;11.356;2023-02-28T17:51:09;96110.00;;;3.60
54746;BMP180;40640;48.130;11.356;2023-02-28T17:55:13;96111.00;;;3.70
54746;BMP180;40640;48.130;11.356;2023-02-28T17:59:17;96109.00;;;3.60
54746;BMP180;40640;48.130;11.356;2023-02-28T18:03:20;96121.00;;;3.60
54746;BMP180;40640;48.130;11.356;2023-02-28T18:07:24;96118.00;;;3.60
54746;BMP180;40640;48.130;11.356;2023-02-28T18:11:27;96117.00;;;3.70
54746;BMP180;40640;48.130;11.356;2023-02-28T18:15:44;96119.00;;;3.70
54746;BMP180;40640;48.130;11.356;2023-02-28T18:19:49;96132.00;;;3.80
54746;BMP180;40640;48.130;11.356;2023-02-28T18:23:51;96118.00;;;3.80
54746;BMP180;40640;48.130;11.356;2023-02-28T18:27:54;96120.00;;;3.70
54746;BMP180;40640;48.130;11.356;2023-02-28T18:32:01;96127.00;;;3.80
54746;BMP180;40640;48.130;11.356;2023-02-28T18:36:05;96121.00;;;3.70
54746;BMP180;40640;48.130;11.356;2023-02-28T18:40:09;96124.00;;;3.80
54746;BMP180;40640;48.130;11.356;2023-02-28T18:44:12;96123.00;;;3.70
54746;BMP180;40640;48.130;11.356;2023-02-28T18:48:23;96113.00;;;3.80
54746;BMP180;40640;48.130;11.356;2023-02-28T18:52:26;96120.00;;;3.90
54746;BMP180;40640;48.130;11.356;2023-02-28T18:56:29;96111.00;;;3.90
54746;BMP180;40640;48.130;11.356;2023-02-28T19:00:32;96112.00;;;4.00
54746;BMP180;40640;48.130;11.356;2023-02-28T19:04:39;96120.00;;;4.10
54746;BMP180;40640;48.130;11.356;2023-02-28T19:08:42;96106.00;;;4.00
54746;BMP180;40640;48.130;11.356;2023-02-28T19:12:45;96115.00;;;3.90
54746;BMP180;40640;48.130;11.356;2023-02-28T19:16:48;96115.00;;;3.90
54746;BMP180;40640;48.130;11.356;2023-02-28T19:20:53;96109.00;;;3.90
54746;BMP180;40640;48.130;11.356;2023-02-28T19:24:56;96102.00;;;4.00
54746;BMP180;40640;48.130;11.356;2023-02-28T19:29:01;96104.00;;;4.00
54746;BMP180;40640;48.130;11.356;2023-02-28T19:33:04;96112.00;;;4.10
54746;BMP180;40640;48.130;11.356;2023-02-28T19:37:08;96104.00;;;4.00
54746;BMP180;40640;48.130;11.356;2023-02-28T19:41:13;96117.00;;;4.10
54746;BMP180;40640;48.130;11.356;2023-02-28T19:45:16;96111.00;;;4.00
54746;BMP180;40640;48.130;11.356;2023-02-28T19:49:19;96115.00;;;4.00
54746;BMP180;40640;48.130;11.356;2023-02-28T19:53:24;96105.00;;;4.10
54746;BMP180;40640;48.130;11.356;2023-02-28T19:57:27;96117.00;;;4.10
54746;BMP180;40640;48.130;11.356;2023-02-28T20:01:30;96109.00;;;4.20
54746;BMP180;40640;48.130;11.356;2023-02-28T20:05:33;96111.00;;;4.20
54746;BMP180;40640;48.130;11.356;2023-02-28T20:09:37;96097.00;;;4.30
54746;BMP180;40640;48.130;11.356;2023-02-28T20:13:42;96105.00;;;4.30
54746;BMP180;40640;48.130;11.356;2023-02-28T20:17:45;96100.00;;;4.30
54746;BMP180;40640;48.130;11.356;2023-02-28T20:21:47;96095.00;;;3.90
54746;BMP180;40640;48.130;11.356;2023-02-28T20:25:52;96102.00;;;3.60
54746;BMP180;40640;48.130;11.356;2023-02-28T20:29:55;96092.00;;;3.30
54746;BMP180;40640;48.130;11.356;2023-02-28T20:33:57;96095.00;;;3.30
54746;BMP180;40640;48.130;11.356;2023-02-28T20:38:00;96098.00;;;3.30
54746;BMP180;40640;48.130;11.356;2023-02-28T20:42:05;96091.00;;;3.10
54746;BMP180;40640;48.130;11.356;2023-02-28T20:46:08;96088.00;;;3.00
54746;BMP180;40640;48.130;11.356;2023-02-28T20:50:11;96082.00;;;3.30
54746;BMP180;40640;48.130;11.356;2023-02-28T20:54:14;96079.00;;;3.40
54746;BMP180;40640;48.130;11.356;2023-02-28T20:58:19;96085.00;;;3.40
54746;BMP180;40640;48.130;11.356;2023-02-28T21:02:21;96081.00;;;3.20
54746;BMP180;40640;48.130;11.356;2023-02-28T21:06:26;96089.00;;;3.00
54746;BMP180;40640;48.130;11.356;2023-02-28T21:10:30;96082.00;;;3.00
54746;BMP180;40640;48.130;11.356;2023-02-28T21:14:34;96087.00;;;3.10
54746;BMP180;40640;48.130;11.356;2023-02-28T21:18:38;96092.00;;;3.10
54746;BMP180;40640;48.130;11.356;2023-02-28T21:22:41;96083.00;;;3.30
54746;BMP180;40640;48.130;11.356;2023-02-28T21:26:44;96079.00;;;3.00
54746;BMP180;40640;48.130;11.356;2023-02-28T21:30:49;96075.00;;;3.10
54746;BMP180;40640;48.130;11.356;2023-02-28T21:34:53;96082.00;;;3.00
54746;BMP180;40640;48.130;11.356;2023-02-28T21:38:58;96078.00;;;3.10
54746;BMP180;40640;48.130;11.356;2023-02-28T21:43:01;96075.00;;;3.40
54746;BMP180;40640;48.130;11.356;2023-02-28T21:47:05;96080.00;;;3.20
54746;BMP180;40640;48.130;11.356;2023-02-28T21:51:11;96072.00;;;2.90
54746;BMP180;40640;48.130;11.356;2023-02-28T21:55:14;96069.00;;;3.10
54746;BMP180;40640;48.130;11.356;2023-02-28T21:59:17;96068.00;;;2.90
54746;BMP180;40640;48.130;11.356;2023-02-28T22:03:22;96069.00;;;2.90
54746;BMP180;40640;48.130;11.356;2023-02-28T22:07:25;96065.00;;;2.80
54746;BMP180;40640;48.130;11.356;2023-02-28T22:11:28;96067.00;;;2.70
54746;BMP180;40640;48.130;11.356;2023-02-28T22:15:34;96074.00;;;2.70
54746;BMP180;40640;48.130;11.356;2023-02-28T22:19:39;96062.00;;;2.70
54746;BMP180;40640;48.130;11.356;2023-02-28T22:23:42;96062.00;;;2.70
54746;BMP180;40640;48.130;11.356;2023-02-28T22:27:46;96054.00;;;2.30
54746;BMP180;40640;48.130;11.356;2023-02-28T22:31:49;96054.00;;;2.40
54746;BMP180;40640;48.130;11.356;2023-02-28T22:35:53;96057.00;;;2.10
54746;BMP180;40640;48.130;11.356;2023-02-28T22:39:56;96058.00;;;2.30
54746;BMP180;40640;48.130;11.356;2023-02-28T22:44:01;96059.00;;;2.20
54746;BMP180;40640;48.130;11.356;2023-02-28T22:48:06;96057.00;;;2.20
54746;BMP180;40640;48.130;11.356;2023-02-28T22:52:11;96054.00;;;2.20
54746;BMP180;40640;48.130;11.356;2023-02-28T22:56:15;96061.00;;;2.10
54746;BMP180;40640;48.130;11.356;2023-02-28T23:00:18;96053.00;;;2.10
54746;BMP180;40640;48.130;11.356;2023-02-28T23:04:21;96053.00;;;2.10
54746;BMP180;40640;48.130;11.356;2023-02-28T23:08:27;96057.00;;;2.20
54746;BMP180;40640;48.130;11.356;2023-02-28T23:12:30;96056.00;;;2.00
54746;BMP180;40640;48.130;11.356;2023-02-28T23:16:36;96048.00;;;2.00
54746;BMP180;40640;48.130;11.356;2023-02-28T23:20:39;96059.00;;;2.00
54746;BMP180;40640;48.130;11.356;2023-02-28T23:24:43;96058.00;;;2.20
54746;BMP180;40640;48.130;11.356;2023-02-28T23:28:46;96052.00;;;2.20
54746;BMP180;40640;48.130;11.356;2023-02-28T23:32:49;96052.00;;;2.10
54746;BMP180;40640;48.130;11.356;2023-02-28T23:36:52;96055.00;;;2.10
54746;BMP180;40640;48.130;11.356;2023-02-28T23:40:57;96048.00;;;2.10
54746;BMP180;40640;48.130;11.356;2023-02-28T23:45:00;96047.00;;;2.00